sensor_id;sensor_type;location;lat;lon;timestamp;temperature;humidity
25963;DHT22;13760;52.588;13.406;2023-09-30T00:00:36;17.30;99.90
25963;DHT22;13760;52.588;13.406;2023-09-30T00:03:02;17.30;99.90
25963;DHT22;13760;52.588;13.406;2023-09-30T00:05:27;17.30;99.90
25963;DHT22;13760;52.588;13.406;2023-09-30T00:07:53;17.20;99.90
25963;DHT22;13760;52.588;13.406;2023-09-30T00:10:18;17.20;99.90
25963;DHT22;13760;52.588;13.406;2023-09-30T00:12:44;17.20;99.90
25963;DHT22;13760;52.588;13.406;2023-09-30T00:15:11;17.20;99.90
25963;DHT22;13760;52.588;13.406;2023-09-30T00:17:36;17.10;99.90
25963;DHT22;13760;52.588;13.406;2023-09-30T00:20:02;17.10;99.90
25963;DHT22;13760;52.588;13.406;2023-09-30T00:22:29;17.10;99.90
25963;DHT22;13760;52.588;13.406;2023-09-30T00:24:55;17.00;99.90
25963;DHT22;13760;52.588;13.406;2023-09-30T00:27:20;17.00;99.90
25963;DHT22;13760;52.588;13.406;2023-09-30T00:29:46;16.90;99.90
25963;DHT22;13760;52.588;13.406;2023-09-30T00:32:11;16.80;99.90
25963;DHT22;13760;52.588;13.406;2023-09-30T00:34:37;16.80;99.90
25963;DHT22;13760;52.588;13.406;2023-09-30T00:37:03;16.70;99.90
25963;DHT22;13760;52.588;13.406;2023-09-30T00:39:29;16.70;99.90
25963;DHT22;13760;52.588;13.406;2023-09-30T00:41:59;16.50;99.90
25963;DHT22;13760;52.588;13.406;2023-09-30T00:44:27;16.40;99.90
25963;DHT22;13760;52.588;13.406;2023-09-30T00:46:54;16.40;99.90
25963;DHT22;13760;52.588;13.406;2023-09-30T00:49:21;16.30;99.90
25963;DHT22;13760;52.588;13.406;2023-09-30T00:51:48;16.20;99.90
25963;DHT22;13760;52.588;13.406;2023-09-30T00:54:15;16.10;99.90
25963;DHT22;13760;52.588;13.406;2023-09-30T00:56:44;16.10;99.90
25963;DHT22;13760;52.588;13.406;2023-09-30T00:59:12;16.10;99.90
25963;DHT22;13760;52.588;13.406;2023-09-30T01:01:38;16.00;99.90
25963;DHT22;13760;52.588;13.406;2023-09-30T01:04:03;15.90;99.90
25963;DHT22;13760;52.588;13.406;2023-09-30T01:06:29;15.90;99.90
25963;DHT22;13760;52.588;13.406;2023-09-30T01:08:55;15.80;99.90
25963;DHT22;13760;52.588;13.406;2023-09-30T01:11:21;15.80;99.90
25963;DHT22;13760;52.588;13.406;2023-09-30T01:13:47;15.70;99.90
25963;DHT22;13760;52.588;13.406;2023-09-30T01:16:13;15.70;99.90
25963;DHT22;13760;52.588;13.406;2023-09-30T01:18:40;15.60;99.90
25963;DHT22;13760;52.588;13.406;2023-09-30T01:21:08;15.60;99.90
25963;DHT22;13760;52.588;13.406;2023-09-30T01:23:35;15.50;99.90
25963;DHT22;13760;52.588;13.406;2023-09-30T01:26:02;15.50;99.90
25963;DHT22;13760;52.588;13.406;2023-09-30T01:28:28;15.40;99.90
25963;DHT22;13760;52.588;13.406;2023-09-30T01:30:54;15.40;99.90
25963;DHT22;13760;52.588;13.406;2023-09-30T01:33:20;15.40;99.90
25963;DHT22;13760;52.588;13.406;2023-09-30T01:35:45;15.40;99.90
25963;DHT22;13760;52.588;13.406;2023-09-30T01:38:11;15.30;99.90
25963;DHT22;13760;52.588;13.406;2023-09-30T01:40:36;15.30;99.90
25963;DHT22;13760;52.588;13.406;2023-09-30T01:43:03;15.20;99.90
25963;DHT22;13760;52.588;13.406;2023-09-30T01:45:29;15.20;99.90
25963;DHT22;13760;52.588;13.406;2023-09-30T01:47:54;15.20;99.90
25963;DHT22;13760;52.588;13.406;2023-09-30T01:50:20;15.10;99.90
25963;DHT22;13760;52.588;13.406;2023-09-30T01:52:45;15.10;99.90
25963;DHT22;13760;52.588;13.406;2023-09-30T01:55:11;15.00;99.90
25963;DHT22;13760;52.588;13.406;2023-09-30T01:57:37;15.00;99.90
25963;DHT22;13760;52.588;13.406;2023-09-30T02:00:03;15.00;99.90
25963;DHT22;13760;52.588;13.406;2023-09-30T02:02:30;15.00;99.90
25963;DHT22;13760;52.588;13.406;2023-09-30T02:04:56;14.90;99.90
25963;DHT22;13760;52.588;13.406;2023-09-30T02:07:22;14.90;99.90
25963;DHT22;13760;52.588;13.406;2023-09-30T02:09:48;14.80;99.90
25963;DHT22;13760;52.588;13.406;2023-09-30T02:12:14;14.80;99.90
25963;DHT22;13760;52.588;13.406;2023-09-30T02:14:39;14.80;99.90
25963;DHT22;13760;52.588;13.406;2023-09-30T02:17:05;14.70;99.90
25963;DHT22;13760;52.588;13.406;2023-09-30T02:19:30;14.70;99.90
25963;DHT22;13760;52.588;13.406;2023-09-30T02:21:59;14.70;99.90
25963;DHT22;13760;52.588;13.406;2023-09-30T02:24:25;14.60;99.90
25963;DHT22;13760;52.588;13.406;2023-09-30T02:26:50;14.50;99.90
25963;DHT22;13760;52.588;13.406;2023-09-30T02:29:16;14.60;99.90
25963;DHT22;13760;52.588;13.406;2023-09-30T02:31:41;14.60;99.90
25963;DHT22;13760;52.588;13.406;2023-09-30T02:34:08;14.60;99.90
25963;DHT22;13760;52.588;13.406;2023-09-30T02:36:33;14.50;99.90
25963;DHT22;13760;52.588;13.406;2023-09-30T02:39:03;14.50;99.90
25963;DHT22;13760;52.588;13.406;2023-09-30T02:41:28;14.50;99.90
25963;DHT22;13760;52.588;13.406;2023-09-30T02:43:54;14.40;99.90
25963;DHT22;13760;52.588;13.406;2023-09-30T02:46:20;14.40;99.90
25963;DHT22;13760;52.588;13.406;2023-09-30T02:48:45;14.40;99.90
25963;DHT22;13760;52.588;13.406;2023-09-30T02:51:11;14.30;99.90
25963;DHT22;13760;52.588;13.406;2023-09-30T02:53:37;14.30;99.90
25963;DHT22;13760;52.588;13.406;2023-09-30T02:56:03;14.30;99.90
25963;DHT22;13760;52.588;13.406;2023-09-30T02:58:29;14.30;99.90
25963;DHT22;13760;52.588;13.406;2023-09-30T03:00:55;14.20;99.90
25963;DHT22;13760;52.588;13.406;2023-09-30T03:03:21;14.20;99.90
25963;DHT22;13760;52.588;13.406;2023-09-30T03:05:47;14.20;99.90
25963;DHT22;13760;52.588;13.406;2023-09-30T03:08:15;14.20;99.90
25963;DHT22;13760;52.588;13.406;2023-09-30T03:10:41;14.10;99.90
25963;DHT22;13760;52.588;13.406;2023-09-30T03:13:07;14.10;99.90
25963;DHT22;13760;52.588;13.406;2023-09-30T03:15:34;14.10;99.90
25963;DHT22;13760;52.588;13.406;2023-09-30T03:18:00;14.10;99.90
25963;DHT22;13760;52.588;13.406;2023-09-30T03:20:26;14.10;99.90
25963;DHT22;13760;52.588;13.406;2023-09-30T03:22:52;14.10;99.90
25963;DHT22;13760;52.588;13.406;2023-09-30T03:25:19;14.00;99.90
25963;DHT22;13760;52.588;13.406;2023-09-30T03:27:46;14.00;99.90
25963;DHT22;13760;52.588;13.406;2023-09-30T03:30:13;14.00;99.90
25963;DHT22;13760;52.588;13.406;2023-09-30T03:32:39;14.00;99.90
25963;DHT22;13760;52.588;13.406;2023-09-30T03:35:09;14.00;99.90
25963;DHT22;13760;52.588;13.406;2023-09-30T03:37:37;14.00;99.90
25963;DHT22;13760;52.588;13.406;2023-09-30T03:40:02;14.00;99.90
25963;DHT22;13760;52.588;13.406;2023-09-30T03:42:37;13.90;99.90
25963;DHT22;13760;52.588;13.406;2023-09-30T03:45:05;14.00;99.90
25963;DHT22;13760;52.588;13.406;2023-09-30T03:47:34;13.90;99.90
25963;DHT22;13760;52.588;13.406;2023-09-30T03:50:08;13.90;99.90
25963;DHT22;13760;52.588;13.406;2023-09-30T03:52:44;13.90;99.90
25963;DHT22;13760;52.588;13.406;2023-09-30T03:55:13;13.90;99.90
25963;DHT22;13760;52.588;13.406;2023-09-30T03:57:41;13.90;99.90
25963;DHT22;13760;52.588;13.406;2023-09-30T04:00:07;13.90;99.90
25963;DHT22;13760;52.588;13.406;2023-09-30T04:02:34;13.80;99.90
25963;DHT22;13760;52.588;13.406;2023-09-30T04:05:00;13.80;99.90
25963;DHT22;13760;52.588;13.406;2023-09-30T04:07:29;13.80;99.90
25963;DHT22;13760;52.588;13.406;2023-09-30T04:09:55;13.80;99.90
25963;DHT22;13760;52.588;13.406;2023-09-30T04:12:21;13.80;99.90
25963;DHT22;13760;52.588;13.406;2023-09-30T04:14:49;13.80;99.90
25963;DHT22;13760;52.588;13.406;2023-09-30T04:17:14;13.70;99.90
25963;DHT22;13760;52.588;13.406;2023-09-30T04:19:40;13.70;99.90
25963;DHT22;13760;52.588;13.406;2023-09-30T04:22:05;13.70;99.90
25963;DHT22;13760;52.588;13.406;2023-09-30T04:24:31;13.70;99.90
25963;DHT22;13760;52.588;13.406;2023-09-30T04:26:56;13.60;99.90
25963;DHT22;13760;52.588;13.406;2023-09-30T04:29:27;13.60;99.90
25963;DHT22;13760;52.588;13.406;2023-09-30T04:31:55;13.50;99.90
25963;DHT22;13760;52.588;13.406;2023-09-30T04:34:20;13.50;99.90
25963;DHT22;13760;52.588;13.406;2023-09-30T04:36:47;13.50;99.90
25963;DHT22;13760;52.588;13.406;2023-09-30T04:39:12;13.50;99.90
25963;DHT22;13760;52.588;13.406;2023-09-30T04:41:38;13.50;99.90
25963;DHT22;13760;52.588;13.406;2023-09-30T04:44:07;13.50;99.90
25963;DHT22;13760;52.588;13.406;2023-09-30T04:46:35;13.50;99.90
25963;DHT22;13760;52.588;13.406;2023-09-30T04:49:01;13.50;99.90
25963;DHT22;13760;52.588;13.406;2023-09-30T04:51:30;13.50;99.90
25963;DHT22;13760;52.588;13.406;2023-09-30T04:53:58;13.50;99.90
25963;DHT22;13760;52.588;13.406;2023-09-30T04:56:25;13.40;99.90
25963;DHT22;13760;52.588;13.406;2023-09-30T04:58:50;13.50;99.90
25963;DHT22;13760;52.588;13.406;2023-09-30T05:01:16;13.40;99.90
25963;DHT22;13760;52.588;13.406;2023-09-30T05:03:46;13.40;99.90
25963;DHT22;13760;52.588;13.406;2023-09-30T05:06:15;13.40;99.90
25963;DHT22;13760;52.588;13.406;2023-09-30T05:08:40;13.40;99.90
25963;DHT22;13760;52.588;13.406;2023-09-30T05:11:06;13.40;99.90
25963;DHT22;13760;52.588;13.406;2023-09-30T05:13:31;13.40;99.90
25963;DHT22;13760;52.588;13.406;2023-09-30T05:15:59;13.40;99.90
25963;DHT22;13760;52.588;13.406;2023-09-30T05:18:25;13.40;99.90
25963;DHT22;13760;52.588;13.406;2023-09-30T05:20:50;13.40;99.90
25963;DHT22;13760;52.588;13.406;2023-09-30T05:23:16;13.40;99.90
25963;DHT22;13760;52.588;13.406;2023-09-30T05:25:42;13.40;99.90
25963;DHT22;13760;52.588;13.406;2023-09-30T05:28:08;13.40;99.90
25963;DHT22;13760;52.588;13.406;2023-09-30T05:30:34;13.40;99.90
25963;DHT22;13760;52.588;13.406;2023-09-30T05:33:00;13.40;99.90
25963;DHT22;13760;52.588;13.406;2023-09-30T05:35:26;13.40;99.90
25963;DHT22;13760;52.588;13.406;2023-09-30T05:37:53;13.40;99.90
25963;DHT22;13760;52.588;13.406;2023-09-30T05:40:20;13.40;99.90
25963;DHT22;13760;52.588;13.406;2023-09-30T05:42:47;13.40;99.90
25963;DHT22;13760;52.588;13.406;2023-09-30T05:45:14;13.40;99.90
25963;DHT22;13760;52.588;13.406;2023-09-30T05:47:40;13.40;99.90
25963;DHT22;13760;52.588;13.406;2023-09-30T05:50:06;13.40;99.90
25963;DHT22;13760;52.588;13.406;2023-09-30T05:52:32;13.40;99.90
25963;DHT22;13760;52.588;13.406;2023-09-30T05:54:58;13.50;99.90
25963;DHT22;13760;52.588;13.406;2023-09-30T05:57:26;13.50;99.90
25963;DHT22;13760;52.588;13.406;2023-09-30T05:59:51;13.50;99.90
25963;DHT22;13760;52.588;13.406;2023-09-30T06:02:17;13.50;99.90
25963;DHT22;13760;52.588;13.406;2023-09-30T06:04:43;13.60;99.90
25963;DHT22;13760;52.588;13.406;2023-09-30T06:07:09;13.60;99.90
25963;DHT22;13760;52.588;13.406;2023-09-30T06:09:35;13.60;99.90
25963;DHT22;13760;52.588;13.406;2023-09-30T06:12:00;13.70;99.90
25963;DHT22;13760;52.588;13.406;2023-09-30T06:14:28;13.80;99.90
25963;DHT22;13760;52.588;13.406;2023-09-30T06:16:56;13.80;99.90
25963;DHT22;13760;52.588;13.406;2023-09-30T06:19:21;13.90;99.90
25963;DHT22;13760;52.588;13.406;2023-09-30T06:21:47;13.90;99.90
25963;DHT22;13760;52.588;13.406;2023-09-30T06:24:12;14.00;99.90
25963;DHT22;13760;52.588;13.406;2023-09-30T06:26:38;14.10;99.90
25963;DHT22;13760;52.588;13.406;2023-09-30T06:29:04;14.10;99.90
25963;DHT22;13760;52.588;13.406;2023-09-30T06:31:31;14.10;99.90
25963;DHT22;13760;52.588;13.406;2023-09-30T06:33:57;14.10;99.90
25963;DHT22;13760;52.588;13.406;2023-09-30T06:36:23;14.10;99.90
25963;DHT22;13760;52.588;13.406;2023-09-30T06:38:49;14.10;99.90
25963;DHT22;13760;52.588;13.406;2023-09-30T06:41:18;14.20;99.90
25963;DHT22;13760;52.588;13.406;2023-09-30T06:43:44;14.20;99.90
25963;DHT22;13760;52.588;13.406;2023-09-30T06:46:10;14.20;99.90
25963;DHT22;13760;52.588;13.406;2023-09-30T06:48:36;14.20;99.90
25963;DHT22;13760;52.588;13.406;2023-09-30T06:51:02;14.20;99.90
25963;DHT22;13760;52.588;13.406;2023-09-30T06:53:28;14.20;99.90
25963;DHT22;13760;52.588;13.406;2023-09-30T06:55:54;14.30;99.90
25963;DHT22;13760;52.588;13.406;2023-09-30T06:58:19;14.40;99.90
25963;DHT22;13760;52.588;13.406;2023-09-30T07:00:52;14.50;99.90
25963;DHT22;13760;52.588;13.406;2023-09-30T07:03:21;14.60;99.90
25963;DHT22;13760;52.588;13.406;2023-09-30T07:05:46;14.70;99.90
25963;DHT22;13760;52.588;13.406;2023-09-30T07:08:16;14.70;99.90
25963;DHT22;13760;52.588;13.406;2023-09-30T07:10:42;14.80;99.90
25963;DHT22;13760;52.588;13.406;2023-09-30T07:13:07;14.80;99.90
25963;DHT22;13760;52.588;13.406;2023-09-30T07:15:33;14.80;99.90
25963;DHT22;13760;52.588;13.406;2023-09-30T07:17:59;14.90;99.90
25963;DHT22;13760;52.588;13.406;2023-09-30T07:20:24;14.90;99.90
25963;DHT22;13760;52.588;13.406;2023-09-30T07:22:50;15.00;99.90
25963;DHT22;13760;52.588;13.406;2023-09-30T07:25:16;15.00;99.90
25963;DHT22;13760;52.588;13.406;2023-09-30T07:27:45;15.00;99.90
25963;DHT22;13760;52.588;13.406;2023-09-30T07:30:12;15.00;99.90
25963;DHT22;13760;52.588;13.406;2023-09-30T07:32:41;15.10;99.90
25963;DHT22;13760;52.588;13.406;2023-09-30T07:35:07;15.10;99.90
25963;DHT22;13760;52.588;13.406;2023-09-30T07:37:33;15.20;99.90
25963;DHT22;13760;52.588;13.406;2023-09-30T07:39:59;15.30;99.90
25963;DHT22;13760;52.588;13.406;2023-09-30T07:42:25;15.30;99.90
25963;DHT22;13760;52.588;13.406;2023-09-30T07:44:50;15.30;99.90
25963;DHT22;13760;52.588;13.406;2023-09-30T07:47:16;15.30;99.90
25963;DHT22;13760;52.588;13.406;2023-09-30T07:49:41;15.30;99.90
25963;DHT22;13760;52.588;13.406;2023-09-30T07:52:07;15.30;99.90
25963;DHT22;13760;52.588;13.406;2023-09-30T07:54:32;15.30;99.90
25963;DHT22;13760;52.588;13.406;2023-09-30T07:56:59;15.30;99.90
25963;DHT22;13760;52.588;13.406;2023-09-30T07:59:24;15.20;99.90
25963;DHT22;13760;52.588;13.406;2023-09-30T08:01:50;15.20;99.90
25963;DHT22;13760;52.588;13.406;2023-09-30T08:04:17;15.20;99.90
25963;DHT22;13760;52.588;13.406;2023-09-30T08:06:43;15.20;99.90
25963;DHT22;13760;52.588;13.406;2023-09-30T08:09:08;15.20;99.90
25963;DHT22;13760;52.588;13.406;2023-09-30T08:11:37;15.30;99.90
25963;DHT22;13760;52.588;13.406;2023-09-30T08:14:03;15.30;99.90
25963;DHT22;13760;52.588;13.406;2023-09-30T08:16:33;15.30;99.90
25963;DHT22;13760;52.588;13.406;2023-09-30T08:18:58;15.30;99.90
25963;DHT22;13760;52.588;13.406;2023-09-30T08:21:24;15.40;99.90
25963;DHT22;13760;52.588;13.406;2023-09-30T08:23:49;15.50;99.90
25963;DHT22;13760;52.588;13.406;2023-09-30T08:26:15;15.50;99.90
25963;DHT22;13760;52.588;13.406;2023-09-30T08:28:40;15.50;99.90
25963;DHT22;13760;52.588;13.406;2023-09-30T08:31:06;15.70;99.90
25963;DHT22;13760;52.588;13.406;2023-09-30T08:33:32;15.80;99.90
25963;DHT22;13760;52.588;13.406;2023-09-30T08:36:04;15.90;99.90
25963;DHT22;13760;52.588;13.406;2023-09-30T08:38:35;15.90;99.90
25963;DHT22;13760;52.588;13.406;2023-09-30T08:41:01;15.90;99.90
25963;DHT22;13760;52.588;13.406;2023-09-30T08:43:28;16.00;99.90
25963;DHT22;13760;52.588;13.406;2023-09-30T08:45:56;15.90;99.90
25963;DHT22;13760;52.588;13.406;2023-09-30T08:48:30;15.90;99.90
25963;DHT22;13760;52.588;13.406;2023-09-30T08:50:59;15.90;99.90
25963;DHT22;13760;52.588;13.406;2023-09-30T08:53:25;16.00;99.90
25963;DHT22;13760;52.588;13.406;2023-09-30T08:55:55;16.10;99.90
25963;DHT22;13760;52.588;13.406;2023-09-30T08:58:24;16.10;99.90
25963;DHT22;13760;52.588;13.406;2023-09-30T09:00:51;16.20;99.90
25963;DHT22;13760;52.588;13.406;2023-09-30T09:03:19;16.20;99.90
25963;DHT22;13760;52.588;13.406;2023-09-30T09:05:45;16.30;99.90
25963;DHT22;13760;52.588;13.406;2023-09-30T09:08:11;16.40;99.90
25963;DHT22;13760;52.588;13.406;2023-09-30T09:10:54;16.60;99.90
25963;DHT22;13760;52.588;13.406;2023-09-30T09:13:21;16.80;99.90
25963;DHT22;13760;52.588;13.406;2023-09-30T09:15:47;16.90;99.90
25963;DHT22;13760;52.588;13.406;2023-09-30T09:18:12;17.00;99.90
25963;DHT22;13760;52.588;13.406;2023-09-30T09:20:45;17.10;99.90
25963;DHT22;13760;52.588;13.406;2023-09-30T09:23:15;17.20;99.90
25963;DHT22;13760;52.588;13.406;2023-09-30T09:25:40;17.30;99.90
25963;DHT22;13760;52.588;13.406;2023-09-30T09:28:08;17.30;99.90
25963;DHT22;13760;52.588;13.406;2023-09-30T09:30:38;17.40;99.90
25963;DHT22;13760;52.588;13.406;2023-09-30T09:33:05;17.60;99.90
25963;DHT22;13760;52.588;13.406;2023-09-30T09:35:32;17.60;99.90
25963;DHT22;13760;52.588;13.406;2023-09-30T09:38:06;17.80;99.90
25963;DHT22;13760;52.588;13.406;2023-09-30T09:40:36;17.80;99.90
25963;DHT22;13760;52.588;13.406;2023-09-30T09:43:03;17.80;99.90
25963;DHT22;13760;52.588;13.406;2023-09-30T09:45:36;17.80;99.90
25963;DHT22;13760;52.588;13.406;2023-09-30T09:48:03;17.90;99.90
25963;DHT22;13760;52.588;13.406;2023-09-30T09:50:30;18.00;99.90
25963;DHT22;13760;52.588;13.406;2023-09-30T09:52:58;18.10;99.90
25963;DHT22;13760;52.588;13.406;2023-09-30T09:55:26;18.20;99.90
25963;DHT22;13760;52.588;13.406;2023-09-30T09:57:53;18.20;99.90
25963;DHT22;13760;52.588;13.406;2023-09-30T10:00:21;18.30;99.90
25963;DHT22;13760;52.588;13.406;2023-09-30T10:02:49;18.30;99.90
25963;DHT22;13760;52.588;13.406;2023-09-30T10:05:16;18.20;99.90
25963;DHT22;13760;52.588;13.406;2023-09-30T10:08:00;18.20;99.90
25963;DHT22;13760;52.588;13.406;2023-09-30T10:10:27;18.20;99.90
25963;DHT22;13760;52.588;13.406;2023-09-30T10:12:53;18.10;99.90
25963;DHT22;13760;52.588;13.406;2023-09-30T10:20:32;18.50;99.90
25963;DHT22;13760;52.588;13.406;2023-09-30T10:25:43;18.80;99.90
25963;DHT22;13760;52.588;13.406;2023-09-30T10:31:12;18.80;99.90
25963;DHT22;13760;52.588;13.406;2023-09-30T10:36:31;18.80;99.90
25963;DHT22;13760;52.588;13.406;2023-09-30T10:38:57;18.60;99.90
25963;DHT22;13760;52.588;13.406;2023-09-30T10:46:58;18.90;99.90
25963;DHT22;13760;52.588;13.406;2023-09-30T10:51:57;19.00;99.90
25963;DHT22;13760;52.588;13.406;2023-09-30T10:54:24;19.00;99.90
25963;DHT22;13760;52.588;13.406;2023-09-30T10:56:50;19.10;99.90
25963;DHT22;13760;52.588;13.406;2023-09-30T10:59:22;19.20;99.90
25963;DHT22;13760;52.588;13.406;2023-09-30T11:01:49;19.00;99.90
25963;DHT22;13760;52.588;13.406;2023-09-30T11:04:15;19.00;99.90
25963;DHT22;13760;52.588;13.406;2023-09-30T11:06:41;19.10;99.90
25963;DHT22;13760;52.588;13.406;2023-09-30T11:09:08;19.20;99.90
25963;DHT22;13760;52.588;13.406;2023-09-30T11:11:40;19.20;99.90
25963;DHT22;13760;52.588;13.406;2023-09-30T11:14:28;19.10;99.90
25963;DHT22;13760;52.588;13.406;2023-09-30T11:16:57;19.00;99.90
25963;DHT22;13760;52.588;13.406;2023-09-30T11:19:23;18.90;99.90
25963;DHT22;13760;52.588;13.406;2023-09-30T11:21:51;18.90;99.90
25963;DHT22;13760;52.588;13.406;2023-09-30T11:24:17;18.80;99.90
25963;DHT22;13760;52.588;13.406;2023-09-30T11:26:44;18.90;99.90
25963;DHT22;13760;52.588;13.406;2023-09-30T11:29:14;19.10;99.90
25963;DHT22;13760;52.588;13.406;2023-09-30T11:31:42;19.40;99.90
25963;DHT22;13760;52.588;13.406;2023-09-30T11:34:09;19.50;99.90
25963;DHT22;13760;52.588;13.406;2023-09-30T11:36:50;19.70;99.90
25963;DHT22;13760;52.588;13.406;2023-09-30T11:39:26;19.90;99.90
25963;DHT22;13760;52.588;13.406;2023-09-30T11:41:52;20.10;99.90
25963;DHT22;13760;52.588;13.406;2023-09-30T11:44:18;20.10;99.90
25963;DHT22;13760;52.588;13.406;2023-09-30T11:46:52;20.20;99.90
25963;DHT22;13760;52.588;13.406;2023-09-30T11:49:30;20.30;99.90
25963;DHT22;13760;52.588;13.406;2023-09-30T11:51:58;20.40;99.90
25963;DHT22;13760;52.588;13.406;2023-09-30T11:54:34;20.50;99.90
25963;DHT22;13760;52.588;13.406;2023-09-30T11:57:02;20.60;99.90
25963;DHT22;13760;52.588;13.406;2023-09-30T11:59:28;20.70;99.90
25963;DHT22;13760;52.588;13.406;2023-09-30T12:01:55;20.70;99.90
25963;DHT22;13760;52.588;13.406;2023-09-30T12:04:20;20.60;99.90
25963;DHT22;13760;52.588;13.406;2023-09-30T12:06:47;20.60;99.90
25963;DHT22;13760;52.588;13.406;2023-09-30T12:09:17;20.60;99.90
25963;DHT22;13760;52.588;13.406;2023-09-30T12:11:49;20.70;99.90
25963;DHT22;13760;52.588;13.406;2023-09-30T12:14:14;20.80;99.90
25963;DHT22;13760;52.588;13.406;2023-09-30T12:16:41;20.90;99.90
25963;DHT22;13760;52.588;13.406;2023-09-30T12:19:07;21.00;99.90
25963;DHT22;13760;52.588;13.406;2023-09-30T12:21:32;20.80;99.90
25963;DHT22;13760;52.588;13.406;2023-09-30T12:23:59;20.70;99.90
25963;DHT22;13760;52.588;13.406;2023-09-30T12:26:25;20.60;99.90
25963;DHT22;13760;52.588;13.406;2023-09-30T12:28:51;20.70;99.90
25963;DHT22;13760;52.588;13.406;2023-09-30T12:31:16;20.70;99.90
25963;DHT22;13760;52.588;13.406;2023-09-30T12:33:43;20.70;99.90
25963;DHT22;13760;52.588;13.406;2023-09-30T12:36:09;20.80;99.90
25963;DHT22;13760;52.588;13.406;2023-09-30T12:38:35;20.80;99.90
25963;DHT22;13760;52.588;13.406;2023-09-30T12:41:00;21.00;99.90
25963;DHT22;13760;52.588;13.406;2023-09-30T12:43:26;20.90;99.90
25963;DHT22;13760;52.588;13.406;2023-09-30T12:45:51;21.00;99.90
25963;DHT22;13760;52.588;13.406;2023-09-30T12:48:17;21.00;99.90
25963;DHT22;13760;52.588;13.406;2023-09-30T12:50:43;21.00;99.90
25963;DHT22;13760;52.588;13.406;2023-09-30T12:53:09;21.00;99.90
25963;DHT22;13760;52.588;13.406;2023-09-30T12:55:35;21.00;99.90
25963;DHT22;13760;52.588;13.406;2023-09-30T12:58:01;20.90;99.90
25963;DHT22;13760;52.588;13.406;2023-09-30T13:00:27;20.90;99.90
25963;DHT22;13760;52.588;13.406;2023-09-30T13:02:52;20.80;99.90
25963;DHT22;13760;52.588;13.406;2023-09-30T13:05:18;20.70;99.90
25963;DHT22;13760;52.588;13.406;2023-09-30T13:07:45;20.70;99.90
25963;DHT22;13760;52.588;13.406;2023-09-30T13:10:11;20.80;99.90
25963;DHT22;13760;52.588;13.406;2023-09-30T13:12:38;20.90;99.90
25963;DHT22;13760;52.588;13.406;2023-09-30T13:15:05;21.00;99.90
25963;DHT22;13760;52.588;13.406;2023-09-30T13:17:30;21.10;99.90
25963;DHT22;13760;52.588;13.406;2023-09-30T13:19:57;21.00;99.10
25963;DHT22;13760;52.588;13.406;2023-09-30T13:22:22;20.90;99.90
25963;DHT22;13760;52.588;13.406;2023-09-30T13:24:48;20.90;99.90
25963;DHT22;13760;52.588;13.406;2023-09-30T13:27:13;20.80;99.90
25963;DHT22;13760;52.588;13.406;2023-09-30T13:29:42;20.80;99.90
25963;DHT22;13760;52.588;13.406;2023-09-30T13:32:09;20.80;99.90
25963;DHT22;13760;52.588;13.406;2023-09-30T13:34:35;20.70;99.90
25963;DHT22;13760;52.588;13.406;2023-09-30T13:37:01;20.70;99.90
25963;DHT22;13760;52.588;13.406;2023-09-30T13:39:26;20.60;98.50
25963;DHT22;13760;52.588;13.406;2023-09-30T13:41:52;20.50;97.80
25963;DHT22;13760;52.588;13.406;2023-09-30T13:44:18;20.40;98.30
25963;DHT22;13760;52.588;13.406;2023-09-30T13:46:44;20.40;97.60
25963;DHT22;13760;52.588;13.406;2023-09-30T13:49:11;20.50;98.10
25963;DHT22;13760;52.588;13.406;2023-09-30T13:51:36;20.50;97.10
25963;DHT22;13760;52.588;13.406;2023-09-30T13:54:04;20.50;97.00
25963;DHT22;13760;52.588;13.406;2023-09-30T13:56:30;20.30;95.30
25963;DHT22;13760;52.588;13.406;2023-09-30T13:58:56;20.30;96.70
25963;DHT22;13760;52.588;13.406;2023-09-30T14:01:23;20.30;97.00
25963;DHT22;13760;52.588;13.406;2023-09-30T14:03:48;20.30;96.40
25963;DHT22;13760;52.588;13.406;2023-09-30T14:06:14;20.30;96.20
25963;DHT22;13760;52.588;13.406;2023-09-30T14:08:41;20.20;97.10
25963;DHT22;13760;52.588;13.406;2023-09-30T14:11:10;20.10;96.30
25963;DHT22;13760;52.588;13.406;2023-09-30T14:13:37;20.10;96.10
25963;DHT22;13760;52.588;13.406;2023-09-30T14:16:04;20.10;95.80
25963;DHT22;13760;52.588;13.406;2023-09-30T14:18:29;20.00;96.00
25963;DHT22;13760;52.588;13.406;2023-09-30T14:20:55;20.10;96.20
25963;DHT22;13760;52.588;13.406;2023-09-30T14:23:21;20.00;96.20
25963;DHT22;13760;52.588;13.406;2023-09-30T14:25:46;20.00;95.90
25963;DHT22;13760;52.588;13.406;2023-09-30T14:28:12;20.00;96.70
25963;DHT22;13760;52.588;13.406;2023-09-30T14:30:39;19.80;96.30
25963;DHT22;13760;52.588;13.406;2023-09-30T14:33:04;19.90;97.10
25963;DHT22;13760;52.588;13.406;2023-09-30T14:35:33;19.90;97.60
25963;DHT22;13760;52.588;13.406;2023-09-30T14:37:59;19.80;97.60
25963;DHT22;13760;52.588;13.406;2023-09-30T14:40:26;19.80;97.00
25963;DHT22;13760;52.588;13.406;2023-09-30T14:42:52;19.80;96.60
25963;DHT22;13760;52.588;13.406;2023-09-30T14:45:18;19.80;97.30
25963;DHT22;13760;52.588;13.406;2023-09-30T14:47:43;19.70;97.30
25963;DHT22;13760;52.588;13.406;2023-09-30T14:50:09;19.70;97.10
25963;DHT22;13760;52.588;13.406;2023-09-30T14:52:35;19.60;98.10
25963;DHT22;13760;52.588;13.406;2023-09-30T14:55:00;19.60;98.30
25963;DHT22;13760;52.588;13.406;2023-09-30T14:57:26;19.50;98.20
25963;DHT22;13760;52.588;13.406;2023-09-30T14:59:52;19.50;97.60
25963;DHT22;13760;52.588;13.406;2023-09-30T15:02:17;19.40;97.50
25963;DHT22;13760;52.588;13.406;2023-09-30T15:04:43;19.40;98.20
25963;DHT22;13760;52.588;13.406;2023-09-30T15:07:08;19.30;99.10
25963;DHT22;13760;52.588;13.406;2023-09-30T15:09:37;19.30;99.60
25963;DHT22;13760;52.588;13.406;2023-09-30T15:12:03;19.30;99.60
25963;DHT22;13760;52.588;13.406;2023-09-30T15:14:29;19.20;98.20
25963;DHT22;13760;52.588;13.406;2023-09-30T15:16:54;19.20;99.20
25963;DHT22;13760;52.588;13.406;2023-09-30T15:19:20;19.20;99.10
25963;DHT22;13760;52.588;13.406;2023-09-30T15:21:45;19.10;99.50
25963;DHT22;13760;52.588;13.406;2023-09-30T15:24:11;19.10;99.70
25963;DHT22;13760;52.588;13.406;2023-09-30T15:26:36;19.10;99.90
25963;DHT22;13760;52.588;13.406;2023-09-30T15:29:02;19.00;99.90
25963;DHT22;13760;52.588;13.406;2023-09-30T15:31:29;19.00;99.90
25963;DHT22;13760;52.588;13.406;2023-09-30T15:33:55;19.00;99.90